Time;durP1;ratioP1;P1;durP2;ratioP2;P2;SDS_P1;SDS_P2;PMS_P1;PMS_P2;Temp;Humidity;BMP_temperature;BMP_pressure;BME280_temperature;BME280_humidity;BME280_pressure;Samples;Min_cycle;Max_cycle;Signal;HPM_P1;HPM_P2
2024/02/28 00:02:17;;;;;;;69.30;18.20;;;;;;;;;;5068594;28;20121;-72
2024/02/28 00:04:44;;;;;;;32.70;17.20;;;;;;;;;;5078827;28;20052;-71
2024/02/28 00:07:10;;;;;;;39.47;18.33;;;;;;;;;;5069185;28;20054;-71
2024/02/28 00:09:36;;;;;;;44.35;19.00;;;;;;;;;;5084079;28;20433;-71
2024/02/28 00:12:03;;;;;;;39.83;18.77;;;;;;;;;;5080118;28;20094;-72
2024/02/28 00:14:29;;;;;;;37.58;17.88;;;;;;;;;;5069751;28;20127;-71
2024/02/28 00:16:56;;;;;;;46.25;16.38;;;;;;;;;;5053277;28;20532;-73
2024/02/28 00:19:24;;;;;;;54.65;16.63;;;;;;;;;;5071690;28;20645;-72
2024/02/28 00:21:51;;;;;;;;;;;;;;;;;;5068210;28;20138;-73
2024/02/28 00:24:17;;;;;;;32.45;16.52;;;;;;;;;;5094008;28;19931;-71
2024/02/28 00:26:43;;;;;;;35.03;16.33;;;;;;;;;;5076255;28;20579;-72
2024/02/28 00:29:10;;;;;;;51.08;17.25;;;;;;;;;;5073364;28;20106;-71
2024/02/28 00:31:36;;;;;;;49.35;17.33;;;;;;;;;;5069360;28;20036;-71
2024/02/28 00:34:03;;;;;;;64.65;17.85;;;;;;;;;;5058924;28;20064;-72
2024/02/28 00:36:29;;;;;;;64.40;16.48;;;;;;;;;;5073160;28;20044;-72
2024/02/28 00:39:13;;;;;;;47.13;15.98;;;;;;;;;;5074579;28;20384;-72
2024/02/28 00:41:39;;;;;;;91.90;18.15;;;;;;;;;;5070653;28;20071;-73
2024/02/28 00:44:05;;;;;;;63.97;18.13;;;;;;;;;;5081261;28;20052;-72
2024/02/28 00:46:32;;;;;;;47.80;17.83;;;;;;;;;;5050158;28;20194;-72
2024/02/28 00:48:58;;;;;;;37.75;17.55;;;;;;;;;;5077148;28;20072;-72
2024/02/28 00:51:25;;;;;;;31.83;17.02;;;;;;;;;;5076095;28;20049;-72
2024/02/28 00:53:51;;;;;;;48.60;18.60;;;;;;;;;;5060834;28;20446;-72
2024/02/28 00:56:17;;;;;;;36.70;18.27;;;;;;;;;;5083437;28;20135;-72
2024/02/28 00:58:44;;;;;;;30.73;17.20;;;;;;;;;;5074786;28;20059;-72
2024/02/28 01:01:10;;;;;;;34.60;18.55;;;;;;;;;;5081280;28;20144;-71
2024/02/28 01:03:37;;;;;;;34.97;18.25;;;;;;;;;;5077287;28;20044;-73
2024/02/28 01:06:04;;;;;;;30.98;16.88;;;;;;;;;;5079538;28;20155;-72
2024/02/28 01:08:30;;;;;;;41.88;15.95;;;;;;;;;;5068410;28;20051;-72
2024/02/28 01:10:58;;;;;;;36.00;18.23;;;;;;;;;;5060556;28;20646;-71
2024/02/28 01:13:25;;;;;;;92.47;19.40;;;;;;;;;;5066434;28;20150;-71
2024/02/28 01:15:51;;;;;;;31.02;15.85;;;;;;;;;;5073698;28;20214;-73
2024/02/28 01:18:18;;;;;;;41.03;16.30;;;;;;;;;;5084392;28;20056;-72
2024/02/28 01:20:44;;;;;;;34.30;17.17;;;;;;;;;;5066316;28;20719;-72
2024/02/28 01:23:10;;;;;;;30.77;14.98;;;;;;;;;;5070690;28;20048;-72
2024/02/28 01:25:37;;;;;;;37.10;16.95;;;;;;;;;;5073974;28;20084;-72
2024/02/28 01:28:03;;;;;;;29.65;16.20;;;;;;;;;;5061582;28;20051;-72
2024/02/28 01:30:30;;;;;;;35.65;16.92;;;;;;;;;;5075009;28;20045;-72
2024/02/28 01:32:56;;;;;;;36.78;16.92;;;;;;;;;;5073399;28;20756;-72
2024/02/28 01:35:23;;;;;;;33.28;16.92;;;;;;;;;;5083313;28;20048;-72
2024/02/28 01:37:49;;;;;;;35.40;17.42;;;;;;;;;;5078604;28;20063;-72
2024/02/28 01:40:15;;;;;;;30.67;16.48;;;;;;;;;;5076656;28;20484;-72
2024/02/28 01:42:42;;;;;;;32.05;17.65;;;;;;;;;;5074415;28;20408;-72
2024/02/28 01:45:12;;;;;;;28.10;16.23;;;;;;;;;;5068490;28;20055;-72
2024/02/28 01:47:40;;;;;;;31.05;17.08;;;;;;;;;;5069131;28;20051;-72
2024/02/28 01:50:07;;;;;;;34.53;17.73;;;;;;;;;;5081068;28;20055;-72
2024/02/28 01:52:34;;;;;;;36.95;17.73;;;;;;;;;;5062852;28;20050;-73
2024/02/28 01:55:00;;;;;;;43.53;18.40;;;;;;;;;;5081136;28;20454;-72
2024/02/28 01:57:27;;;;;;;46.45;19.10;;;;;;;;;;5080048;28;20047;-72
2024/02/28 01:59:55;;;;;;;103.15;19.75;;;;;;;;;;5081669;28;20051;-72
2024/02/28 02:02:21;;;;;;;76.72;20.52;;;;;;;;;;5080091;28;20082;-73
2024/02/28 02:04:47;;;;;;;61.03;18.80;;;;;;;;;;5080571;28;20393;-72
2024/02/28 02:07:14;;;;;;;101.15;22.85;;;;;;;;;;5066767;28;20055;-73
2024/02/28 02:09:40;;;;;;;80.95;20.48;;;;;;;;;;5077760;28;20044;-72
2024/02/28 02:12:07;;;;;;;54.72;20.48;;;;;;;;;;5066058;28;20080;-72
2024/02/28 02:14:33;;;;;;;79.03;22.60;;;;;;;;;;5064061;28;20477;-72
2024/02/28 02:17:00;;;;;;;102.07;21.48;;;;;;;;;;5051100;28;20144;-72
2024/02/28 02:19:26;;;;;;;127.78;22.52;;;;;;;;;;5074770;28;20906;-72
2024/02/28 02:21:54;;;;;;;197.57;23.48;;;;;;;;;;5059706;28;20052;-72
2024/02/28 02:24:21;;;;;;;189.02;22.33;;;;;;;;;;5084057;28;20086;-72
2024/02/28 02:26:47;;;;;;;99.68;20.45;;;;;;;;;;5070973;28;20039;-72
2024/02/28 02:29:14;;;;;;;157.13;22.10;;;;;;;;;;5051757;28;20133;-72
2024/02/28 02:31:40;;;;;;;90.95;21.02;;;;;;;;;;5080139;28;20101;-72
2024/02/28 02:34:07;;;;;;;85.85;20.60;;;;;;;;;;5071236;28;20131;-72
2024/02/28 02:36:33;;;;;;;73.70;20.20;;;;;;;;;;5072659;28;20051;-72
2024/02/28 02:39:00;;;;;;;67.60;21.25;;;;;;;;;;5076777;28;20079;-72
2024/02/28 02:41:26;;;;;;;126.72;21.42;;;;;;;;;;5065535;28;20436;-72
2024/02/28 02:43:53;;;;;;;156.13;23.00;;;;;;;;;;5058125;28;20055;-73
2024/02/28 02:46:19;;;;;;;150.25;20.85;;;;;;;;;;5077387;28;20354;-73
2024/02/28 02:48:45;;;;;;;89.95;20.45;;;;;;;;;;5070972;28;20052;-73
2024/02/28 02:51:12;;;;;;;99.00;19.92;;;;;;;;;;5075161;28;20044;-73
2024/02/28 02:53:38;;;;;;;63.03;20.05;;;;;;;;;;5070755;28;20044;-73
2024/02/28 02:56:05;;;;;;;156.00;21.25;;;;;;;;;;5051822;28;20102;-73
2024/02/28 02:58:31;;;;;;;98.85;20.00;;;;;;;;;;5067024;28;20489;-73
2024/02/28 03:00:57;;;;;;;125.25;20.33;;;;;;;;;;5083766;28;20126;-73
2024/02/28 03:03:24;;;;;;;118.45;21.02;;;;;;;;;;5065567;28;20052;-74
2024/02/28 03:05:50;;;;;;;103.40;19.85;;;;;;;;;;5079913;28;20048;-73
2024/02/28 03:08:17;;;;;;;131.23;21.10;;;;;;;;;;5081518;28;20062;-73
2024/02/28 03:10:43;;;;;;;183.20;21.35;;;;;;;;;;5075963;28;20087;-74
2024/02/28 03:13:09;;;;;;;154.73;21.30;;;;;;;;;;5065176;28;20075;-74
2024/02/28 03:15:36;;;;;;;93.72;18.98;;;;;;;;;;5073472;28;20080;-74
2024/02/28 03:18:03;;;;;;;126.72;19.25;;;;;;;;;;5066327;28;20051;-73
2024/02/28 03:20:29;;;;;;;90.68;18.70;;;;;;;;;;5068107;28;20099;-73
2024/02/28 03:22:56;;;;;;;62.05;18.83;;;;;;;;;;5063522;28;20056;-73
2024/02/28 03:25:22;;;;;;;79.63;19.27;;;;;;;;;;5064027;28;20144;-73
2024/02/28 03:27:49;;;;;;;63.03;19.63;;;;;;;;;;5075540;28;20071;-73
2024/02/28 03:30:15;;;;;;;55.88;17.55;;;;;;;;;;5066219;28;20062;-73
2024/02/28 03:32:42;;;;;;;58.55;19.83;;;;;;;;;;5075984;28;20040;-73
2024/02/28 03:35:08;;;;;;;49.25;18.20;;;;;;;;;;5080320;28;20049;-73
2024/02/28 03:37:35;;;;;;;45.13;18.20;;;;;;;;;;5085201;28;20082;-73
2024/02/28 03:40:02;;;;;;;84.22;19.33;;;;;;;;;;5052396;28;20078;-73
2024/02/28 03:42:28;;;;;;;120.28;21.95;;;;;;;;;;5084262;28;20044;-73
2024/02/28 03:44:55;;;;;;;87.00;20.48;;;;;;;;;;5069942;28;20048;-73
2024/02/28 03:47:21;;;;;;;72.82;19.15;;;;;;;;;;5072631;28;20040;-73
2024/02/28 03:49:48;;;;;;;65.20;18.52;;;;;;;;;;5069004;28;20078;-72
2024/02/28 03:52:14;;;;;;;45.75;18.45;;;;;;;;;;5063152;28;20168;-73
2024/02/28 03:54:42;;;;;;;74.32;18.75;;;;;;;;;;5054356;28;20080;-73
2024/02/28 03:57:08;;;;;;;51.20;19.90;;;;;;;;;;5075238;28;20288;-73
2024/02/28 03:59:35;;;;;;;148.75;20.00;;;;;;;;;;5080392;28;20682;-73
2024/02/28 04:02:01;;;;;;;66.78;18.25;;;;;;;;;;5061610;28;20047;-73
2024/02/28 04:04:28;;;;;;;71.70;19.15;;;;;;;;;;5080419;28;20052;-73
2024/02/28 04:06:54;;;;;;;59.35;19.27;;;;;;;;;;5062435;28;20761;-74
2024/02/28 04:09:21;;;;;;;34.70;16.58;;;;;;;;;;5063146;28;20048;-73
2024/02/28 04:11:47;;;;;;;40.05;16.30;;;;;;;;;;5087152;28;20059;-73
2024/02/28 04:14:14;;;;;;;61.60;17.08;;;;;;;;;;5078798;28;20102;-73
2024/02/28 04:16:41;;;;;;;58.08;16.95;;;;;;;;;;5081933;28;20161;-73
2024/02/28 04:19:07;;;;;;;65.00;19.02;;;;;;;;;;5077811;28;20131;-73
2024/02/28 04:21:33;;;;;;;43.20;17.80;;;;;;;;;;5061508;28;20246;-73
2024/02/28 04:24:00;;;;;;;40.25;17.63;;;;;;;;;;5088037;28;20048;-73
2024/02/28 04:26:26;;;;;;;39.13;16.63;;;;;;;;;;5073155;28;20143;-73
2024/02/28 04:28:52;;;;;;;46.00;17.20;;;;;;;;;;5075027;28;20143;-73
2024/02/28 04:31:19;;;;;;;52.25;17.55;;;;;;;;;;5060606;28;20101;-73
2024/02/28 04:33:45;;;;;;;47.17;16.58;;;;;;;;;;5067137;28;20139;-73
2024/02/28 04:36:12;;;;;;;84.03;18.05;;;;;;;;;;5064443;28;20117;-73
2024/02/28 04:38:38;;;;;;;51.70;18.15;;;;;;;;;;5086940;28;20083;-73
2024/02/28 04:41:04;;;;;;;53.13;17.52;;;;;;;;;;5060272;28;20109;-73
2024/02/28 04:43:31;;;;;;;41.92;17.60;;;;;;;;;;5072653;28;20964;-73
2024/02/28 04:45:57;;;;;;;43.22;16.00;;;;;;;;;;5081900;28;20116;-73
2024/02/28 04:48:23;;;;;;;63.00;16.90;;;;;;;;;;5069464;28;20877;-73
2024/02/28 04:50:51;;;;;;;106.53;18.83;;;;;;;;;;5087751;28;20679;-73
2024/02/28 04:53:17;;;;;;;50.90;17.48;;;;;;;;;;5082011;28;20083;-73
2024/02/28 04:55:43;;;;;;;48.70;16.90;;;;;;;;;;5073142;28;20056;-73
2024/02/28 04:58:10;;;;;;;50.97;17.05;;;;;;;;;;5060653;28;20148;-73
2024/02/28 05:00:36;;;;;;;47.30;17.63;;;;;;;;;;5071925;28;20071;-73
2024/02/28 05:03:03;;;;;;;28.80;16.13;;;;;;;;;;5064847;28;20048;-72
2024/02/28 05:05:29;;;;;;;46.83;16.15;;;;;;;;;;5070065;28;20087;-73
2024/02/28 05:07:56;;;;;;;91.75;17.63;;;;;;;;;;5067520;28;20081;-73
2024/02/28 05:10:22;;;;;;;35.72;15.05;;;;;;;;;;5079482;28;20048;-72
2024/02/28 05:12:48;;;;;;;64.63;16.77;;;;;;;;;;5050575;28;20124;-73
2024/02/28 05:15:15;;;;;;;61.60;15.02;;;;;;;;;;5081175;28;20036;-74
2024/02/28 05:17:41;;;;;;;67.93;15.27;;;;;;;;;;5068561;28;20040;-72
2024/02/28 05:20:08;;;;;;;43.25;15.55;;;;;;;;;;5069570;28;20134;-73
2024/02/28 05:22:35;;;;;;;54.03;15.50;;;;;;;;;;5080119;28;20052;-73
2024/02/28 05:25:01;;;;;;;48.70;16.13;;;;;;;;;;5058782;28;20056;-72
2024/02/28 05:27:28;;;;;;;34.92;16.17;;;;;;;;;;5083547;28;20041;-73
2024/02/28 05:29:54;;;;;;;41.47;17.85;;;;;;;;;;5071757;28;20160;-73
2024/02/28 05:32:21;;;;;;;50.78;16.65;;;;;;;;;;5070611;28;20049;-73
2024/02/28 05:34:47;;;;;;;27.63;15.70;;;;;;;;;;5066374;28;20055;-73
2024/02/28 05:37:15;;;;;;;58.42;15.30;;;;;;;;;;5080525;28;20155;-72
2024/02/28 05:39:42;;;;;;;26.83;14.25;;;;;;;;;;5053204;28;20044;-73
2024/02/28 05:42:09;;;;;;;37.45;14.40;;;;;;;;;;5081931;28;20483;-72
2024/02/28 05:44:35;;;;;;;32.63;14.27;;;;;;;;;;5073976;28;20040;-73
2024/02/28 05:47:01;;;;;;;36.40;15.40;;;;;;;;;;5072838;28;20036;-73
2024/02/28 05:49:28;;;;;;;27.08;13.60;;;;;;;;;;5068899;28;20131;-73
2024/02/28 05:51:54;;;;;;;29.45;13.35;;;;;;;;;;5071344;28;20104;-73
2024/02/28 05:54:21;;;;;;;24.90;12.82;;;;;;;;;;5068102;28;20463;-73
2024/02/28 05:56:47;;;;;;;26.17;13.68;;;;;;;;;;5065960;28;20055;-73
2024/02/28 05:59:14;;;;;;;28.38;13.93;;;;;;;;;;5073923;28;20047;-73
2024/02/28 06:01:40;;;;;;;27.75;14.30;;;;;;;;;;5078739;28;20046;-75
2024/02/28 06:04:07;;;;;;;24.20;12.95;;;;;;;;;;5084124;28;20130;-73
2024/02/28 06:06:33;;;;;;;18.50;12.95;;;;;;;;;;5060076;28;20044;-73
2024/02/28 06:08:59;;;;;;;17.73;12.27;;;;;;;;;;5074347;28;20412;-74
2024/02/28 06:11:26;;;;;;;20.48;12.35;;;;;;;;;;5076579;28;20661;-74
2024/02/28 06:13:52;;;;;;;21.73;13.25;;;;;;;;;;5078579;28;20056;-73
2024/02/28 06:16:19;;;;;;;18.98;12.85;;;;;;;;;;5063320;28;20057;-73
2024/02/28 06:18:45;;;;;;;19.23;12.70;;;;;;;;;;5084413;28;20504;-73
2024/02/28 06:21:13;;;;;;;18.48;13.48;;;;;;;;;;5081397;28;20134;-73
2024/02/28 06:23:39;;;;;;;21.40;13.10;;;;;;;;;;5066540;28;20045;-73
2024/02/28 06:26:05;;;;;;;21.45;12.82;;;;;;;;;;5085562;28;20404;-73
2024/02/28 06:28:32;;;;;;;25.85;12.70;;;;;;;;;;5062529;28;20056;-73
2024/02/28 06:30:58;;;;;;;24.92;13.73;;;;;;;;;;5083589;28;20430;-72
2024/02/28 06:33:25;;;;;;;19.48;13.32;;;;;;;;;;5085271;28;20065;-73
2024/02/28 06:35:51;;;;;;;20.90;13.07;;;;;;;;;;5068732;28;20045;-74
2024/02/28 06:38:18;;;;;;;32.15;13.60;;;;;;;;;;5070240;28;20060;-73
2024/02/28 06:40:44;;;;;;;21.27;13.98;;;;;;;;;;5056979;28;20133;-73
2024/02/28 06:43:11;;;;;;;27.98;13.52;;;;;;;;;;5067640;28;20131;-74
2024/02/28 06:45:37;;;;;;;25.27;13.98;;;;;;;;;;5079176;28;20059;-73
2024/02/28 06:48:04;;;;;;;21.58;13.52;;;;;;;;;;5070551;28;20048;-74
2024/02/28 06:50:31;;;;;;;21.35;13.40;;;;;;;;;;5081205;28;20058;-73
2024/02/28 06:52:57;;;;;;;21.50;14.18;;;;;;;;;;5064399;28;20126;-73
2024/02/28 06:55:23;;;;;;;22.00;14.77;;;;;;;;;;5067993;28;20048;-73
2024/02/28 06:57:50;;;;;;;20.20;14.15;;;;;;;;;;5075884;28;20139;-73
2024/02/28 07:00:18;;;;;;;23.58;15.13;;;;;;;;;;5085817;28;20075;-73
2024/02/28 07:02:45;;;;;;;20.00;13.43;;;;;;;;;;5046915;28;20052;-73
2024/02/28 07:05:12;;;;;;;22.70;14.40;;;;;;;;;;5062743;28;20468;-73
2024/02/28 07:07:39;;;;;;;21.38;14.40;;;;;;;;;;5054145;28;20135;-73
2024/02/28 07:10:06;;;;;;;23.15;15.13;;;;;;;;;;5067713;28;20071;-73
2024/02/28 07:12:32;;;;;;;22.88;16.02;;;;;;;;;;5078943;28;20046;-73
2024/02/28 07:14:59;;;;;;;22.75;15.38;;;;;;;;;;5076582;28;20044;-73
2024/02/28 07:17:25;;;;;;;22.65;14.93;;;;;;;;;;5074192;28;20148;-73
2024/02/28 07:19:52;;;;;;;25.77;16.70;;;;;;;;;;5074806;28;20051;-72
2024/02/28 07:22:18;;;;;;;27.67;16.40;;;;;;;;;;5064593;28;20049;-73
2024/02/28 07:24:45;;;;;;;24.30;15.77;;;;;;;;;;5071112;28;20459;-73
2024/02/28 07:27:11;;;;;;;25.02;16.58;;;;;;;;;;5064839;28;20144;-73
2024/02/28 07:29:37;;;;;;;25.20;16.13;;;;;;;;;;5065990;28;20407;-73
2024/02/28 07:32:04;;;;;;;25.48;16.05;;;;;;;;;;5065423;28;20432;-73
2024/02/28 07:34:31;;;;;;;25.27;16.35;;;;;;;;;;5067454;28;20068;-73
2024/02/28 07:36:57;;;;;;;25.33;15.52;;;;;;;;;;5071664;28;20144;-73
2024/02/28 07:39:24;;;;;;;28.80;17.92;;;;;;;;;;5072014;28;20056;-73
2024/02/28 07:41:51;;;;;;;29.17;17.95;;;;;;;;;;5088509;28;20044;-73
2024/02/28 07:44:21;;;;;;;24.83;16.73;;;;;;;;;;5052916;28;20080;-73
2024/02/28 07:46:50;;;;;;;25.95;16.55;;;;;;;;;;5061497;28;20473;-73
2024/02/28 07:49:16;;;;;;;;;;;;;;;;;;5080625;28;20048;-73
2024/02/28 07:51:43;;;;;;;28.25;16.85;;;;;;;;;;5066519;28;20002;-72
2024/02/28 07:54:09;;;;;;;28.95;18.30;;;;;;;;;;5087753;28;20051;-73
2024/02/28 07:56:36;;;;;;;28.67;16.75;;;;;;;;;;5073517;28;20456;-73
2024/02/28 07:59:02;;;;;;;26.55;17.23;;;;;;;;;;5050859;28;20588;-73
2024/02/28 08:01:29;;;;;;;30.95;19.25;;;;;;;;;;5082266;28;20044;-73
2024/02/28 08:03:55;;;;;;;26.75;16.80;;;;;;;;;;5077042;28;20048;-73
2024/02/28 08:06:22;;;;;;;31.08;18.35;;;;;;;;;;5065781;28;20155;-73
2024/02/28 08:08:49;;;;;;;31.70;18.55;;;;;;;;;;5055507;28;20423;-74
2024/02/28 08:11:15;;;;;;;37.15;18.50;;;;;;;;;;5086726;28;20076;-73
2024/02/28 08:13:43;;;;;;;30.73;18.42;;;;;;;;;;5086469;28;20040;-73
2024/02/28 08:16:10;;;;;;;31.25;18.83;;;;;;;;;;5074449;28;20144;-72
2024/02/28 08:18:36;;;;;;;31.23;18.52;;;;;;;;;;5075411;28;20064;-74
2024/02/28 08:21:03;;;;;;;31.25;18.35;;;;;;;;;;5076203;28;20051;-73
2024/02/28 08:23:29;;;;;;;32.15;20.13;;;;;;;;;;5079544;28;20473;-72
2024/02/28 08:25:56;;;;;;;39.85;20.85;;;;;;;;;;5079352;28;20079;-73
2024/02/28 08:28:22;;;;;;;38.78;20.83;;;;;;;;;;5079697;28;20072;-73
2024/02/28 08:30:49;;;;;;;40.13;20.83;;;;;;;;;;5095156;28;20048;-73
2024/02/28 08:33:15;;;;;;;35.58;19.65;;;;;;;;;;5068276;28;20109;-72
2024/02/28 08:35:44;;;;;;;39.45;21.73;;;;;;;;;;5070338;28;20075;-72
2024/02/28 08:38:10;;;;;;;40.05;21.85;;;;;;;;;;5054740;28;20719;-72
2024/02/28 08:40:37;;;;;;;41.83;20.98;;;;;;;;;;5065220;28;20083;-73
2024/02/28 08:43:03;;;;;;;40.45;21.10;;;;;;;;;;5073622;28;20044;-72
2024/02/28 08:45:30;;;;;;;38.15;21.40;;;;;;;;;;5081375;28;20564;-73
2024/02/28 08:48:01;;;;;;;38.10;20.08;;;;;;;;;;5075469;28;20047;-73
2024/02/28 08:50:28;;;;;;;40.30;20.60;;;;;;;;;;5080103;28;20093;-72
2024/02/28 08:52:55;;;;;;;40.72;20.33;;;;;;;;;;5084809;28;20040;-72
2024/02/28 08:55:21;;;;;;;44.67;21.48;;;;;;;;;;5082393;28;20048;-72
2024/02/28 08:57:51;;;;;;;33.97;19.98;;;;;;;;;;5067643;28;20053;-72
2024/02/28 09:00:17;;;;;;;41.50;21.38;;;;;;;;;;5084026;28;20561;-72
2024/02/28 09:02:44;;;;;;;42.05;21.52;;;;;;;;;;5049889;28;20550;-72
2024/02/28 09:05:10;;;;;;;40.50;22.40;;;;;;;;;;5082750;28;20040;-71
2024/02/28 09:07:37;;;;;;;38.72;21.92;;;;;;;;;;5061973;28;20052;-71
2024/02/28 09:10:05;;;;;;;38.70;21.25;;;;;;;;;;5083116;28;20040;-72
2024/02/28 09:12:31;;;;;;;37.90;22.33;;;;;;;;;;5071866;28;20507;-71
2024/02/28 09:14:58;;;;;;;39.88;21.67;;;;;;;;;;5069532;28;20276;-72
2024/02/28 09:17:25;;;;;;;41.17;22.20;;;;;;;;;;5080354;28;20043;-72
2024/02/28 09:19:52;;;;;;;41.08;22.08;;;;;;;;;;5082159;28;20052;-71
2024/02/28 09:22:21;;;;;;;41.40;21.75;;;;;;;;;;5062607;28;20101;-71
2024/02/28 09:24:48;;;;;;;;;;;;;;;;;;5059500;28;20052;-72
2024/02/28 09:27:14;;;;;;;38.92;21.65;;;;;;;;;;5074336;28;19928;-71
2024/02/28 09:29:41;;;;;;;40.13;20.75;;;;;;;;;;5069150;28;20135;-72
2024/02/28 09:32:08;;;;;;;42.38;23.10;;;;;;;;;;5073275;28;20152;-72
2024/02/28 09:34:35;;;;;;;37.05;22.50;;;;;;;;;;5086194;28;20624;-71
2024/02/28 09:37:01;;;;;;;41.08;23.00;;;;;;;;;;5055657;28;20139;-71
2024/02/28 09:39:28;;;;;;;36.97;22.38;;;;;;;;;;5063558;28;20059;-71
2024/02/28 09:41:54;;;;;;;39.55;23.35;;;;;;;;;;5081907;28;20055;-71
2024/02/28 09:44:22;;;;;;;37.30;23.35;;;;;;;;;;5077089;28;20078;-71
2024/02/28 09:46:50;;;;;;;38.13;22.80;;;;;;;;;;5081475;28;20048;-71
2024/02/28 09:49:17;;;;;;;39.80;23.05;;;;;;;;;;5080822;28;20047;-71
2024/02/28 09:51:49;;;;;;;38.17;22.60;;;;;;;;;;5084156;28;20044;-71
2024/02/28 09:54:15;;;;;;;38.55;23.42;;;;;;;;;;5085264;28;20412;-71
2024/02/28 09:56:42;;;;;;;44.03;23.48;;;;;;;;;;5067565;28;20040;-70
2024/02/28 09:59:09;;;;;;;41.08;23.85;;;;;;;;;;5088685;28;20038;-71
2024/02/28 10:01:38;;;;;;;40.70;25.42;;;;;;;;;;5071633;28;20091;-71
2024/02/28 10:04:04;;;;;;;36.40;21.90;;;;;;;;;;5076246;28;20278;-71
2024/02/28 10:06:31;;;;;;;41.00;24.05;;;;;;;;;;5075963;28;20412;-71
2024/02/28 10:08:57;;;;;;;39.38;24.25;;;;;;;;;;5080474;28;20052;-72
2024/02/28 10:11:24;;;;;;;38.50;23.80;;;;;;;;;;5072693;28;20056;-71
2024/02/28 10:13:52;;;;;;;38.78;23.80;;;;;;;;;;5071379;28;20093;-71
2024/02/28 10:16:18;;;;;;;38.40;23.00;;;;;;;;;;5078259;28;20121;-70
2024/02/28 10:18:45;;;;;;;45.20;24.85;;;;;;;;;;5078758;28;20412;-71
2024/02/28 10:21:18;;;;;;;39.15;23.55;;;;;;;;;;5071475;28;20041;-71
2024/02/28 10:23:44;;;;;;;40.35;24.23;;;;;;;;;;5084508;28;20052;-71
2024/02/28 10:26:11;;;;;;;38.05;24.15;;;;;;;;;;5070227;28;20538;-71
2024/02/28 10:28:39;;;;;;;40.33;24.55;;;;;;;;;;5075785;28;20052;-70
2024/02/28 10:31:07;;;;;;;44.80;25.90;;;;;;;;;;5067750;28;20064;-71
2024/02/28 10:33:35;;;;;;;39.50;24.30;;;;;;;;;;5083900;28;20643;-70
2024/02/28 10:36:02;;;;;;;37.88;22.83;;;;;;;;;;5078853;28;20040;-71
2024/02/28 10:38:30;;;;;;;37.67;22.85;;;;;;;;;;5074518;28;20048;-71
2024/02/28 10:40:57;;;;;;;40.97;24.67;;;;;;;;;;5069978;28;20635;-71
2024/02/28 10:43:25;;;;;;;40.97;25.33;;;;;;;;;;5045080;28;21009;-71
2024/02/28 10:45:52;;;;;;;38.80;23.65;;;;;;;;;;5076241;28;20045;-71
2024/02/28 10:48:38;;;;;;;37.63;23.67;;;;;;;;;;5046633;28;20048;-71
2024/02/28 10:51:05;;;;;;;44.08;25.27;;;;;;;;;;5078454;28;20139;-72
2024/02/28 10:53:37;;;;;;;42.28;24.65;;;;;;;;;;5075344;28;20047;-72
2024/02/28 10:56:05;;;;;;;40.92;24.63;;;;;;;;;;5065271;28;20135;-71
2024/02/28 10:58:34;;;;;;;39.03;24.30;;;;;;;;;;5079785;28;20048;-73
2024/02/28 11:01:01;;;;;;;35.67;21.88;;;;;;;;;;5081481;28;20090;-72
2024/02/28 11:03:28;;;;;;;36.90;23.88;;;;;;;;;;5081621;28;20508;-72
2024/02/28 11:05:55;;;;;;;42.60;25.30;;;;;;;;;;5068324;28;20063;-72
2024/02/28 11:08:22;;;;;;;40.38;23.40;;;;;;;;;;5060178;28;20101;-71
2024/02/28 11:10:55;;;;;;;38.38;23.55;;;;;;;;;;5079512;28;20669;-71
2024/02/28 11:13:22;;;;;;;41.60;23.05;;;;;;;;;;5068035;28;20075;-72
2024/02/28 11:15:48;;;;;;;37.30;23.33;;;;;;;;;;5073661;28;20125;-70
2024/02/28 11:18:15;;;;;;;43.65;24.88;;;;;;;;;;5087552;28;20423;-72
2024/02/28 11:20:43;;;;;;;44.85;24.80;;;;;;;;;;5085962;28;20050;-72
2024/02/28 11:23:09;;;;;;;37.70;24.05;;;;;;;;;;5068655;28;20052;-71
2024/02/28 11:25:36;;;;;;;40.90;23.40;;;;;;;;;;5050899;28;20053;-71
2024/02/28 11:28:03;;;;;;;37.08;23.48;;;;;;;;;;5065283;28;20059;-72
2024/02/28 11:30:31;;;;;;;36.95;23.58;;;;;;;;;;5072370;28;20071;-71
2024/02/28 11:32:58;;;;;;;46.27;24.57;;;;;;;;;;5076879;28;20135;-72
2024/02/28 11:35:31;;;;;;;39.97;23.17;;;;;;;;;;5076155;28;20090;-72
2024/02/28 11:37:58;;;;;;;36.63;24.00;;;;;;;;;;5072146;28;20369;-71
2024/02/28 11:40:27;;;;;;;42.47;24.00;;;;;;;;;;5085012;28;20055;-72
2024/02/28 11:42:54;;;;;;;38.80;23.90;;;;;;;;;;5049490;28;20131;-72
2024/02/28 11:45:21;;;;;;;34.58;22.58;;;;;;;;;;5087674;28;20454;-72
2024/02/28 11:47:47;;;;;;;33.75;23.02;;;;;;;;;;5084172;28;20521;-72
2024/02/28 11:50:20;;;;;;;38.85;23.33;;;;;;;;;;5071895;28;20048;-71
2024/02/28 11:52:47;;;;;;;37.50;23.33;;;;;;;;;;5061543;28;20049;-71
2024/02/28 11:55:13;;;;;;;36.10;25.33;;;;;;;;;;5081046;28;20040;-72
2024/02/28 11:57:40;;;;;;;40.13;24.70;;;;;;;;;;5088633;28;21187;-72
2024/02/28 12:00:07;;;;;;;43.05;25.75;;;;;;;;;;5082699;28;20044;-71
2024/02/28 12:02:35;;;;;;;39.53;24.85;;;;;;;;;;5079887;28;20140;-71
2024/02/28 12:05:04;;;;;;;40.95;25.15;;;;;;;;;;5080611;28;20060;-71
2024/02/28 12:07:30;;;;;;;39.60;23.35;;;;;;;;;;5078068;28;20052;-70
2024/02/28 12:09:57;;;;;;;36.38;23.40;;;;;;;;;;5088001;28;20102;-74
2024/02/28 12:12:24;;;;;;;43.58;26.67;;;;;;;;;;5085974;28;20048;-72
2024/02/28 12:14:51;;;;;;;37.00;23.83;;;;;;;;;;5090074;28;20047;-70
2024/02/28 12:17:18;;;;;;;36.42;24.50;;;;;;;;;;5080994;28;20052;-71
2024/02/28 12:19:45;;;;;;;37.08;24.15;;;;;;;;;;5080214;28;20057;-72
2024/02/28 12:22:11;;;;;;;36.13;23.23;;;;;;;;;;5069549;28;20044;-71
2024/02/28 12:24:37;;;;;;;34.38;20.52;;;;;;;;;;5073218;28;20113;-71
2024/02/28 12:27:04;;;;;;;38.10;24.05;;;;;;;;;;5084072;28;20597;-70
2024/02/28 12:29:31;;;;;;;36.05;23.67;;;;;;;;;;5074152;28;20048;-72
2024/02/28 12:31:58;;;;;;;35.30;22.60;;;;;;;;;;5087692;28;20415;-71
2024/02/28 12:34:24;;;;;;;36.58;21.77;;;;;;;;;;5078913;28;20151;-72
2024/02/28 12:36:50;;;;;;;37.50;22.02;;;;;;;;;;5072721;28;20516;-72
2024/02/28 12:39:17;;;;;;;33.97;22.15;;;;;;;;;;5072076;28;20135;-71
2024/02/28 12:41:43;;;;;;;30.67;19.92;;;;;;;;;;5073746;28;20051;-71
2024/02/28 12:44:10;;;;;;;37.97;22.58;;;;;;;;;;5077101;28;20054;-71
2024/02/28 12:46:37;;;;;;;33.22;20.58;;;;;;;;;;5075761;28;21296;-71
2024/02/28 12:49:03;;;;;;;33.65;21.88;;;;;;;;;;5064658;28;20489;-71
2024/02/28 12:51:36;;;;;;;34.83;22.00;;;;;;;;;;5080657;28;20511;-71
2024/02/28 12:54:03;;;;;;;32.70;21.92;;;;;;;;;;5071389;28;20131;-70
2024/02/28 12:56:30;;;;;;;32.67;21.10;;;;;;;;;;5061893;28;20097;-71
2024/02/28 12:58:56;;;;;;;32.35;20.48;;;;;;;;;;5081335;28;20078;-71
2024/02/28 13:01:22;;;;;;;32.35;21.70;;;;;;;;;;5071395;28;20060;-71
2024/02/28 13:03:49;;;;;;;30.33;19.02;;;;;;;;;;5076254;28;20055;-72
2024/02/28 13:06:16;;;;;;;32.13;19.75;;;;;;;;;;5063503;28;20067;-72
2024/02/28 13:08:43;;;;;;;32.08;19.88;;;;;;;;;;5073333;28;20109;-72
2024/02/28 13:11:10;;;;;;;36.45;21.05;;;;;;;;;;5083150;28;20050;-71
2024/02/28 13:13:36;;;;;;;40.90;20.75;;;;;;;;;;5080999;28;20136;-71
2024/02/28 13:16:03;;;;;;;35.28;22.05;;;;;;;;;;5083148;28;20056;-72
2024/02/28 13:18:29;;;;;;;32.45;20.85;;;;;;;;;;5059810;28;20551;-72
2024/02/28 13:20:56;;;;;;;32.63;22.10;;;;;;;;;;5080311;28;20047;-71
2024/02/28 13:23:22;;;;;;;34.78;22.13;;;;;;;;;;5071649;28;20040;-72
2024/02/28 13:25:49;;;;;;;34.03;21.58;;;;;;;;;;5094802;28;20048;-72
2024/02/28 13:28:15;;;;;;;35.50;23.10;;;;;;;;;;5070928;28;20744;-72
2024/02/28 13:30:42;;;;;;;33.22;18.98;;;;;;;;;;5071298;28;20045;-71
2024/02/28 13:33:08;;;;;;;31.55;20.17;;;;;;;;;;5075256;28;20845;-72
2024/02/28 13:35:35;;;;;;;28.08;18.38;;;;;;;;;;5087977;28;20131;-72
2024/02/28 13:38:01;;;;;;;30.15;19.50;;;;;;;;;;5086663;28;20075;-71
2024/02/28 13:40:28;;;;;;;30.52;17.73;;;;;;;;;;5080119;28;20052;-72
2024/02/28 13:42:54;;;;;;;30.73;19.13;;;;;;;;;;5080590;28;20083;-73
2024/02/28 13:45:21;;;;;;;26.30;17.88;;;;;;;;;;5079805;28;20123;-73
2024/02/28 13:47:48;;;;;;;29.88;18.88;;;;;;;;;;5072290;28;20128;-73
2024/02/28 13:50:14;;;;;;;29.88;19.05;;;;;;;;;;5059759;28;20050;-72
2024/02/28 13:52:41;;;;;;;33.00;18.52;;;;;;;;;;5068684;28;20467;-72
2024/02/28 13:55:09;;;;;;;30.05;17.15;;;;;;;;;;5079880;28;20083;-73
2024/02/28 13:57:35;;;;;;;26.25;17.83;;;;;;;;;;5065003;28;20653;-73
2024/02/28 14:00:06;;;;;;;31.38;18.75;;;;;;;;;;5078487;28;20063;-72
2024/02/28 14:02:32;;;;;;;31.63;19.45;;;;;;;;;;5085569;28;20460;-72
2024/02/28 14:05:00;;;;;;;35.97;20.63;;;;;;;;;;5079403;28;20044;-71
2024/02/28 14:07:26;;;;;;;29.25;18.13;;;;;;;;;;5079708;28;20036;-72
2024/02/28 14:09:53;;;;;;;32.80;20.10;;;;;;;;;;5064596;28;20055;-72
2024/02/28 14:12:19;;;;;;;33.97;21.63;;;;;;;;;;5066766;28;20823;-72
2024/02/28 14:14:46;;;;;;;37.33;22.60;;;;;;;;;;5071036;28;20047;-72